sensor_id;sensor_type;location;lat;lon;timestamp;P1;durP1;ratioP1;P2;durP2;ratioP2
23517;SDS011;11935;50.878;4.392;2022-08-24T00:01:59;7.57;;;2.78;;
23517;SDS011;11935;50.878;4.392;2022-08-24T00:04:26;6.13;;;3.15;;
23517;SDS011;11935;50.878;4.392;2022-08-24T00:06:52;7.97;;;5.78;;
23517;SDS011;11935;50.878;4.392;2022-08-24T00:09:18;5.68;;;2.95;;
23517;SDS011;11935;50.878;4.392;2022-08-24T00:11:44;5.90;;;3.00;;
23517;SDS011;11935;50.878;4.392;2022-08-24T00:14:10;7.20;;;3.35;;
23517;SDS011;11935;50.878;4.392;2022-08-24T00:16:36;6.47;;;3.42;;
23517;SDS011;11935;50.878;4.392;2022-08-24T00:19:02;5.90;;;3.33;;
23517;SDS011;11935;50.878;4.392;2022-08-24T00:21:28;9.60;;;4.68;;
23517;SDS011;11935;50.878;4.392;2022-08-24T00:23:54;6.07;;;3.80;;
23517;SDS011;11935;50.878;4.392;2022-08-24T00:26:21;4.15;;;3.10;;
23517;SDS011;11935;50.878;4.392;2022-08-24T00:28:47;9.88;;;3.13;;
23517;SDS011;11935;50.878;4.392;2022-08-24T00:31:13;9.68;;;3.10;;
23517;SDS011;11935;50.878;4.392;2022-08-24T00:33:39;8.40;;;3.20;;
23517;SDS011;11935;50.878;4.392;2022-08-24T00:36:06;7.35;;;3.58;;
23517;SDS011;11935;50.878;4.392;2022-08-24T00:38:32;7.43;;;3.17;;
23517;SDS011;11935;50.878;4.392;2022-08-24T00:40:59;8.35;;;3.40;;
23517;SDS011;11935;50.878;4.392;2022-08-24T00:43:26;4.63;;;3.33;;
23517;SDS011;11935;50.878;4.392;2022-08-24T00:48:21;6.93;;;3.65;;
23517;SDS011;11935;50.878;4.392;2022-08-24T00:50:49;4.95;;;3.83;;
23517;SDS011;11935;50.878;4.392;2022-08-24T00:53:26;6.93;;;4.03;;
23517;SDS011;11935;50.878;4.392;2022-08-24T00:55:57;8.00;;;3.88;;
23517;SDS011;11935;50.878;4.392;2022-08-24T00:58:30;8.02;;;4.25;;
23517;SDS011;11935;50.878;4.392;2022-08-24T01:00:59;5.95;;;4.10;;
23517;SDS011;11935;50.878;4.392;2022-08-24T01:03:27;7.93;;;4.15;;
23517;SDS011;11935;50.878;4.392;2022-08-24T01:05:53;8.00;;;3.72;;
23517;SDS011;11935;50.878;4.392;2022-08-24T01:08:20;5.28;;;4.05;;
23517;SDS011;11935;50.878;4.392;2022-08-24T01:10:48;9.68;;;4.25;;
23517;SDS011;11935;50.878;4.392;2022-08-24T01:13:15;6.55;;;3.58;;
23517;SDS011;11935;50.878;4.392;2022-08-24T01:15:43;8.02;;;3.70;;
23517;SDS011;11935;50.878;4.392;2022-08-24T01:18:12;11.35;;;4.43;;
23517;SDS011;11935;50.878;4.392;2022-08-24T01:21:00;5.10;;;3.90;;
23517;SDS011;11935;50.878;4.392;2022-08-24T01:23:52;7.97;;;3.70;;
23517;SDS011;11935;50.878;4.392;2022-08-24T01:26:41;8.48;;;3.67;;
23517;SDS011;11935;50.878;4.392;2022-08-24T01:29:09;7.65;;;3.97;;
23517;SDS011;11935;50.878;4.392;2022-08-24T01:31:38;4.03;;;3.65;;
23517;SDS011;11935;50.878;4.392;2022-08-24T01:34:04;5.72;;;3.40;;
23517;SDS011;11935;50.878;4.392;2022-08-24T01:36:32;5.80;;;3.55;;
23517;SDS011;11935;50.878;4.392;2022-08-24T01:39:03;4.97;;;3.83;;
23517;SDS011;11935;50.878;4.392;2022-08-24T01:41:30;7.03;;;4.00;;
23517;SDS011;11935;50.878;4.392;2022-08-24T01:43:57;6.00;;;3.55;;
23517;SDS011;11935;50.878;4.392;2022-08-24T01:46:23;3.70;;;3.30;;
23517;SDS011;11935;50.878;4.392;2022-08-24T01:48:49;5.18;;;3.70;;
23517;SDS011;11935;50.878;4.392;2022-08-24T01:51:15;5.85;;;3.40;;
23517;SDS011;11935;50.878;4.392;2022-08-24T01:53:41;7.40;;;3.25;;
23517;SDS011;11935;50.878;4.392;2022-08-24T01:56:07;4.32;;;3.08;;
23517;SDS011;11935;50.878;4.392;2022-08-24T01:58:33;6.18;;;3.28;;
23517;SDS011;11935;50.878;4.392;2022-08-24T02:00:59;7.03;;;3.35;;
23517;SDS011;11935;50.878;4.392;2022-08-24T02:03:25;4.90;;;3.15;;
23517;SDS011;11935;50.878;4.392;2022-08-24T02:05:51;3.95;;;3.08;;
23517;SDS011;11935;50.878;4.392;2022-08-24T02:08:17;4.88;;;3.10;;
23517;SDS011;11935;50.878;4.392;2022-08-24T02:10:43;7.05;;;3.30;;
23517;SDS011;11935;50.878;4.392;2022-08-24T02:13:09;5.03;;;3.22;;
23517;SDS011;11935;50.878;4.392;2022-08-24T02:15:37;9.20;;;3.10;;
23517;SDS011;11935;50.878;4.392;2022-08-24T02:18:06;3.95;;;2.90;;
23517;SDS011;11935;50.878;4.392;2022-08-24T02:20:33;7.90;;;2.83;;
23517;SDS011;11935;50.878;4.392;2022-08-24T02:23:00;3.65;;;2.42;;
23517;SDS011;11935;50.878;4.392;2022-08-24T02:25:26;6.03;;;2.70;;
23517;SDS011;11935;50.878;4.392;2022-08-24T02:27:55;5.68;;;2.97;;
23517;SDS011;11935;50.878;4.392;2022-08-24T02:30:21;5.25;;;2.53;;
23517;SDS011;11935;50.878;4.392;2022-08-24T02:32:49;3.35;;;2.40;;
23517;SDS011;11935;50.878;4.392;2022-08-24T02:35:15;4.78;;;3.05;;
23517;SDS011;11935;50.878;4.392;2022-08-24T02:37:41;4.82;;;2.60;;
23517;SDS011;11935;50.878;4.392;2022-08-24T02:40:07;5.07;;;3.20;;
23517;SDS011;11935;50.878;4.392;2022-08-24T02:42:34;3.70;;;2.45;;
23517;SDS011;11935;50.878;4.392;2022-08-24T02:45:01;4.30;;;2.50;;
23517;SDS011;11935;50.878;4.392;2022-08-24T02:47:27;4.80;;;2.50;;
23517;SDS011;11935;50.878;4.392;2022-08-24T02:49:53;3.28;;;2.75;;
23517;SDS011;11935;50.878;4.392;2022-08-24T02:52:19;5.93;;;2.15;;
23517;SDS011;11935;50.878;4.392;2022-08-24T02:54:45;5.55;;;3.05;;
23517;SDS011;11935;50.878;4.392;2022-08-24T02:57:11;4.18;;;2.90;;
23517;SDS011;11935;50.878;4.392;2022-08-24T02:59:37;6.57;;;3.50;;
23517;SDS011;11935;50.878;4.392;2022-08-24T03:02:04;4.10;;;2.97;;
23517;SDS011;11935;50.878;4.392;2022-08-24T03:04:30;8.25;;;3.22;;
23517;SDS011;11935;50.878;4.392;2022-08-24T03:06:56;8.63;;;2.97;;
23517;SDS011;11935;50.878;4.392;2022-08-24T03:09:23;5.35;;;2.65;;
23517;SDS011;11935;50.878;4.392;2022-08-24T03:11:49;5.82;;;3.33;;
23517;SDS011;11935;50.878;4.392;2022-08-24T03:14:15;8.73;;;3.83;;
23517;SDS011;11935;50.878;4.392;2022-08-24T03:16:42;7.38;;;4.80;;
23517;SDS011;11935;50.878;4.392;2022-08-24T03:19:09;7.93;;;5.18;;
23517;SDS011;11935;50.878;4.392;2022-08-24T03:21:35;6.90;;;6.20;;
23517;SDS011;11935;50.878;4.392;2022-08-24T03:24:02;6.70;;;5.10;;
23517;SDS011;11935;50.878;4.392;2022-08-24T03:26:28;10.43;;;6.65;;
23517;SDS011;11935;50.878;4.392;2022-08-24T03:28:54;8.45;;;5.75;;
23517;SDS011;11935;50.878;4.392;2022-08-24T03:31:20;8.63;;;6.72;;
23517;SDS011;11935;50.878;4.392;2022-08-24T03:33:46;11.25;;;8.38;;
23517;SDS011;11935;50.878;4.392;2022-08-24T03:36:12;11.25;;;8.57;;
23517;SDS011;11935;50.878;4.392;2022-08-24T03:38:38;15.02;;;11.80;;
23517;SDS011;11935;50.878;4.392;2022-08-24T03:41:05;16.77;;;10.60;;
23517;SDS011;11935;50.878;4.392;2022-08-24T03:43:31;10.50;;;8.40;;
23517;SDS011;11935;50.878;4.392;2022-08-24T03:46:17;50.50;;;11.23;;
23517;SDS011;11935;50.878;4.392;2022-08-24T03:48:43;67.10;;;11.27;;
23517;SDS011;11935;50.878;4.392;2022-08-24T03:51:10;97.90;;;13.88;;
23517;SDS011;11935;50.878;4.392;2022-08-24T03:53:37;66.93;;;10.60;;
23517;SDS011;11935;50.878;4.392;2022-08-24T03:56:03;83.63;;;11.23;;
23517;SDS011;11935;50.878;4.392;2022-08-24T03:58:29;94.47;;;12.77;;
23517;SDS011;11935;50.878;4.392;2022-08-24T04:00:55;74.72;;;11.32;;
23517;SDS011;11935;50.878;4.392;2022-08-24T04:03:22;59.03;;;8.88;;
23517;SDS011;11935;50.878;4.392;2022-08-24T04:05:48;50.90;;;7.90;;
23517;SDS011;11935;50.878;4.392;2022-08-24T04:08:14;39.53;;;7.18;;
23517;SDS011;11935;50.878;4.392;2022-08-24T04:10:43;37.55;;;6.35;;
23517;SDS011;11935;50.878;4.392;2022-08-24T04:13:09;32.30;;;5.82;;
23517;SDS011;11935;50.878;4.392;2022-08-24T04:15:38;22.73;;;5.57;;
23517;SDS011;11935;50.878;4.392;2022-08-24T04:18:04;24.70;;;5.38;;
23517;SDS011;11935;50.878;4.392;2022-08-24T04:20:30;26.23;;;5.45;;
23517;SDS011;11935;50.878;4.392;2022-08-24T04:22:57;31.83;;;5.75;;
23517;SDS011;11935;50.878;4.392;2022-08-24T04:25:23;22.80;;;4.88;;
23517;SDS011;11935;50.878;4.392;2022-08-24T04:27:49;25.92;;;8.55;;
23517;SDS011;11935;50.878;4.392;2022-08-24T04:30:15;21.58;;;4.90;;
23517;SDS011;11935;50.878;4.392;2022-08-24T04:32:41;22.95;;;5.22;;
23517;SDS011;11935;50.878;4.392;2022-08-24T04:35:07;24.42;;;5.53;;
23517;SDS011;11935;50.878;4.392;2022-08-24T04:37:33;29.08;;;5.50;;
23517;SDS011;11935;50.878;4.392;2022-08-24T04:39:59;29.08;;;4.65;;
23517;SDS011;11935;50.878;4.392;2022-08-24T04:42:25;23.73;;;4.97;;
23517;SDS011;11935;50.878;4.392;2022-08-24T04:44:51;20.00;;;5.43;;
23517;SDS011;11935;50.878;4.392;2022-08-24T04:47:17;21.63;;;5.38;;
23517;SDS011;11935;50.878;4.392;2022-08-24T04:49:43;17.95;;;5.05;;
23517;SDS011;11935;50.878;4.392;2022-08-24T04:52:09;27.25;;;5.97;;
23517;SDS011;11935;50.878;4.392;2022-08-24T04:54:35;26.40;;;5.32;;
23517;SDS011;11935;50.878;4.392;2022-08-24T04:57:01;19.88;;;5.78;;
23517;SDS011;11935;50.878;4.392;2022-08-24T04:59:27;33.88;;;6.60;;
23517;SDS011;11935;50.878;4.392;2022-08-24T05:01:53;25.58;;;6.30;;
23517;SDS011;11935;50.878;4.392;2022-08-24T05:04:19;25.35;;;7.45;;
23517;SDS011;11935;50.878;4.392;2022-08-24T05:06:45;21.20;;;7.03;;
23517;SDS011;11935;50.878;4.392;2022-08-24T05:09:11;23.98;;;7.47;;
23517;SDS011;11935;50.878;4.392;2022-08-24T05:11:38;36.10;;;6.80;;
23517;SDS011;11935;50.878;4.392;2022-08-24T05:14:07;23.67;;;6.15;;
23517;SDS011;11935;50.878;4.392;2022-08-24T05:16:35;21.85;;;5.07;;
23517;SDS011;11935;50.878;4.392;2022-08-24T05:19:02;21.20;;;5.88;;
23517;SDS011;11935;50.878;4.392;2022-08-24T05:21:29;28.55;;;6.50;;
23517;SDS011;11935;50.878;4.392;2022-08-24T05:23:55;37.03;;;5.68;;
23517;SDS011;11935;50.878;4.392;2022-08-24T05:26:22;18.05;;;6.32;;
23517;SDS011;11935;50.878;4.392;2022-08-24T05:28:54;24.23;;;5.50;;
23517;SDS011;11935;50.878;4.392;2022-08-24T05:31:22;20.13;;;6.25;;
23517;SDS011;11935;50.878;4.392;2022-08-24T05:36:18;25.58;;;9.95;;
23517;SDS011;11935;50.878;4.392;2022-08-24T05:38:51;24.17;;;12.43;;
23517;SDS011;11935;50.878;4.392;2022-08-24T05:41:17;25.05;;;13.60;;
23517;SDS011;11935;50.878;4.392;2022-08-24T05:43:44;34.85;;;16.77;;
23517;SDS011;11935;50.878;4.392;2022-08-24T05:46:10;23.30;;;13.18;;
23517;SDS011;11935;50.878;4.392;2022-08-24T05:48:36;27.05;;;12.95;;
23517;SDS011;11935;50.878;4.392;2022-08-24T05:51:03;26.23;;;14.63;;
23517;SDS011;11935;50.878;4.392;2022-08-24T05:53:29;20.88;;;15.88;;
23517;SDS011;11935;50.878;4.392;2022-08-24T05:55:55;28.35;;;18.48;;
23517;SDS011;11935;50.878;4.392;2022-08-24T05:58:21;26.75;;;18.23;;
23517;SDS011;11935;50.878;4.392;2022-08-24T06:00:47;25.02;;;20.08;;
23517;SDS011;11935;50.878;4.392;2022-08-24T06:03:14;24.45;;;19.35;;
23517;SDS011;11935;50.878;4.392;2022-08-24T06:05:41;29.95;;;20.63;;
23517;SDS011;11935;50.878;4.392;2022-08-24T06:08:07;28.33;;;22.23;;
23517;SDS011;11935;50.878;4.392;2022-08-24T06:10:43;27.85;;;21.30;;
23517;SDS011;11935;50.878;4.392;2022-08-24T06:13:11;29.98;;;20.63;;
23517;SDS011;11935;50.878;4.392;2022-08-24T06:15:38;25.80;;;20.65;;
23517;SDS011;11935;50.878;4.392;2022-08-24T06:18:05;30.42;;;23.00;;
23517;SDS011;11935;50.878;4.392;2022-08-24T06:20:32;33.17;;;22.08;;
23517;SDS011;11935;50.878;4.392;2022-08-24T06:22:58;25.45;;;20.42;;
23517;SDS011;11935;50.878;4.392;2022-08-24T06:25:24;28.08;;;22.38;;
23517;SDS011;11935;50.878;4.392;2022-08-24T06:28:09;31.05;;;20.98;;
23517;SDS011;11935;50.878;4.392;2022-08-24T06:30:35;26.88;;;20.25;;
23517;SDS011;11935;50.878;4.392;2022-08-24T06:33:01;33.58;;;20.15;;
23517;SDS011;11935;50.878;4.392;2022-08-24T06:35:27;23.38;;;19.05;;
23517;SDS011;11935;50.878;4.392;2022-08-24T06:37:53;26.05;;;19.95;;
23517;SDS011;11935;50.878;4.392;2022-08-24T06:40:20;31.10;;;20.13;;
23517;SDS011;11935;50.878;4.392;2022-08-24T06:42:46;32.88;;;21.50;;
23517;SDS011;11935;50.878;4.392;2022-08-24T06:45:12;27.42;;;20.17;;
23517;SDS011;11935;50.878;4.392;2022-08-24T06:47:39;27.85;;;19.52;;
23517;SDS011;11935;50.878;4.392;2022-08-24T06:50:05;21.90;;;19.27;;
23517;SDS011;11935;50.878;4.392;2022-08-24T06:52:33;26.23;;;17.65;;
23517;SDS011;11935;50.878;4.392;2022-08-24T06:54:59;25.00;;;18.40;;
23517;SDS011;11935;50.878;4.392;2022-08-24T06:57:25;27.90;;;19.70;;
23517;SDS011;11935;50.878;4.392;2022-08-24T06:59:51;24.35;;;18.92;;
23517;SDS011;11935;50.878;4.392;2022-08-24T07:02:18;28.17;;;18.55;;
23517;SDS011;11935;50.878;4.392;2022-08-24T07:04:45;23.17;;;18.77;;
23517;SDS011;11935;50.878;4.392;2022-08-24T07:07:11;27.17;;;18.85;;
23517;SDS011;11935;50.878;4.392;2022-08-24T07:09:37;23.90;;;17.83;;
23517;SDS011;11935;50.878;4.392;2022-08-24T07:12:04;23.45;;;18.52;;
23517;SDS011;11935;50.878;4.392;2022-08-24T07:14:30;30.48;;;18.17;;
23517;SDS011;11935;50.878;4.392;2022-08-24T07:16:56;30.77;;;17.42;;
23517;SDS011;11935;50.878;4.392;2022-08-24T07:19:22;27.75;;;17.13;;
23517;SDS011;11935;50.878;4.392;2022-08-24T07:21:49;23.83;;;17.13;;
23517;SDS011;11935;50.878;4.392;2022-08-24T07:24:15;28.25;;;17.38;;
23517;SDS011;11935;50.878;4.392;2022-08-24T07:26:42;27.33;;;18.15;;
23517;SDS011;11935;50.878;4.392;2022-08-24T07:29:09;22.35;;;16.92;;
23517;SDS011;11935;50.878;4.392;2022-08-24T07:31:39;24.02;;;18.10;;
23517;SDS011;11935;50.878;4.392;2022-08-24T07:34:07;24.55;;;17.15;;
23517;SDS011;11935;50.878;4.392;2022-08-24T07:36:34;29.07;;;16.17;;
23517;SDS011;11935;50.878;4.392;2022-08-24T07:39:00;24.50;;;14.93;;
23517;SDS011;11935;50.878;4.392;2022-08-24T07:41:26;24.55;;;14.85;;
23517;SDS011;11935;50.878;4.392;2022-08-24T07:43:54;26.08;;;13.35;;
23517;SDS011;11935;50.878;4.392;2022-08-24T07:46:20;29.70;;;12.98;;
23517;SDS011;11935;50.878;4.392;2022-08-24T07:48:46;24.60;;;12.75;;
23517;SDS011;11935;50.878;4.392;2022-08-24T07:51:14;27.33;;;12.60;;
23517;SDS011;11935;50.878;4.392;2022-08-24T07:53:40;21.55;;;11.93;;
23517;SDS011;11935;50.878;4.392;2022-08-24T07:56:07;29.80;;;12.40;;
23517;SDS011;11935;50.878;4.392;2022-08-24T07:58:33;28.85;;;14.20;;
23517;SDS011;11935;50.878;4.392;2022-08-24T08:01:00;20.38;;;10.93;;
23517;SDS011;11935;50.878;4.392;2022-08-24T08:03:28;11.35;;;8.45;;
23517;SDS011;11935;50.878;4.392;2022-08-24T08:05:56;14.48;;;7.28;;
23517;SDS011;11935;50.878;4.392;2022-08-24T08:08:23;13.10;;;7.57;;
23517;SDS011;11935;50.878;4.392;2022-08-24T08:10:49;41.45;;;10.32;;
23517;SDS011;11935;50.878;4.392;2022-08-24T08:13:15;25.27;;;9.13;;
23517;SDS011;11935;50.878;4.392;2022-08-24T08:15:42;13.60;;;7.72;;
23517;SDS011;11935;50.878;4.392;2022-08-24T08:18:08;18.70;;;6.80;;
23517;SDS011;11935;50.878;4.392;2022-08-24T08:20:36;11.40;;;6.88;;
23517;SDS011;11935;50.878;4.392;2022-08-24T08:23:02;11.35;;;7.15;;
23517;SDS011;11935;50.878;4.392;2022-08-24T08:25:47;16.33;;;8.45;;
23517;SDS011;11935;50.878;4.392;2022-08-24T08:28:13;61.88;;;13.40;;
23517;SDS011;11935;50.878;4.392;2022-08-24T08:30:39;16.67;;;7.20;;
23517;SDS011;11935;50.878;4.392;2022-08-24T08:33:06;13.93;;;7.25;;
23517;SDS011;11935;50.878;4.392;2022-08-24T08:35:32;14.13;;;7.53;;
23517;SDS011;11935;50.878;4.392;2022-08-24T08:38:00;15.35;;;8.02;;
23517;SDS011;11935;50.878;4.392;2022-08-24T08:45:52;14.77;;;7.78;;
23517;SDS011;11935;50.878;4.392;2022-08-24T08:48:41;14.57;;;8.40;;
23517;SDS011;11935;50.878;4.392;2022-08-24T08:51:20;13.27;;;7.68;;
23517;SDS011;11935;50.878;4.392;2022-08-24T08:54:01;18.73;;;7.25;;
23517;SDS011;11935;50.878;4.392;2022-08-24T09:01:27;16.55;;;8.10;;
23517;SDS011;11935;50.878;4.392;2022-08-24T09:04:01;11.85;;;6.85;;
23517;SDS011;11935;50.878;4.392;2022-08-24T09:06:39;13.93;;;6.78;;
23517;SDS011;11935;50.878;4.392;2022-08-24T09:09:15;11.38;;;6.45;;
23517;SDS011;11935;50.878;4.392;2022-08-24T09:30:15;14.73;;;7.57;;
23517;SDS011;11935;50.878;4.392;2022-08-24T09:35:31;7.05;;;6.07;;
23517;SDS011;11935;50.878;4.392;2022-08-24T09:53:59;9.52;;;4.03;;
23517;SDS011;11935;50.878;4.392;2022-08-24T09:56:39;10.48;;;2.97;;
23517;SDS011;11935;50.878;4.392;2022-08-24T10:12:34;7.80;;;2.85;;
23517;SDS011;11935;50.878;4.392;2022-08-24T10:30:54;5.97;;;2.28;;
23517;SDS011;11935;50.878;4.392;2022-08-24T10:36:07;10.18;;;3.15;;
23517;SDS011;11935;50.878;4.392;2022-08-24T10:44:34;4.75;;;1.70;;
23517;SDS011;11935;50.878;4.392;2022-08-24T10:47:11;6.78;;;1.42;;
23517;SDS011;11935;50.878;4.392;2022-08-24T10:49:57;3.70;;;1.48;;
23517;SDS011;11935;50.878;4.392;2022-08-24T10:58:12;13.70;;;3.38;;
23517;SDS011;11935;50.878;4.392;2022-08-24T11:00:44;8.80;;;1.75;;
23517;SDS011;11935;50.878;4.392;2022-08-24T11:03:15;5.55;;;1.60;;
23517;SDS011;11935;50.878;4.392;2022-08-24T11:05:45;4.95;;;1.60;;
23517;SDS011;11935;50.878;4.392;2022-08-24T11:10:45;5.88;;;1.40;;
23517;SDS011;11935;50.878;4.392;2022-08-24T11:13:22;3.08;;;1.10;;
23517;SDS011;11935;50.878;4.392;2022-08-24T11:15:50;4.40;;;1.00;;
23517;SDS011;11935;50.878;4.392;2022-08-24T11:18:17;3.90;;;0.75;;
23517;SDS011;11935;50.878;4.392;2022-08-24T11:20:44;6.53;;;1.13;;
23517;SDS011;11935;50.878;4.392;2022-08-24T11:23:15;4.10;;;0.80;;
23517;SDS011;11935;50.878;4.392;2022-08-24T11:25:54;2.90;;;1.00;;
23517;SDS011;11935;50.878;4.392;2022-08-24T11:28:35;2.13;;;0.90;;
23517;SDS011;11935;50.878;4.392;2022-08-24T11:31:03;3.30;;;0.90;;
23517;SDS011;11935;50.878;4.392;2022-08-24T11:33:34;3.15;;;1.17;;
23517;SDS011;11935;50.878;4.392;2022-08-24T11:36:20;3.30;;;0.90;;
23517;SDS011;11935;50.878;4.392;2022-08-24T11:38:47;3.03;;;0.55;;
23517;SDS011;11935;50.878;4.392;2022-08-24T11:41:33;1.27;;;0.65;;
23517;SDS011;11935;50.878;4.392;2022-08-24T11:44:07;2.47;;;0.70;;
23517;SDS011;11935;50.878;4.392;2022-08-24T11:46:56;1.50;;;0.60;;
23517;SDS011;11935;50.878;4.392;2022-08-24T11:51:59;3.45;;;0.65;;
23517;SDS011;11935;50.878;4.392;2022-08-24T11:54:37;8.43;;;1.05;;
23517;SDS011;11935;50.878;4.392;2022-08-24T11:57:16;3.20;;;0.70;;
23517;SDS011;11935;50.878;4.392;2022-08-24T12:02:33;2.72;;;0.80;;
23517;SDS011;11935;50.878;4.392;2022-08-24T12:05:02;1.45;;;0.70;;
23517;SDS011;11935;50.878;4.392;2022-08-24T12:07:44;4.68;;;0.90;;
23517;SDS011;11935;50.878;4.392;2022-08-24T12:10:19;24.58;;;4.63;;
23517;SDS011;11935;50.878;4.392;2022-08-24T12:15:18;2.25;;;0.77;;
23517;SDS011;11935;50.878;4.392;2022-08-24T12:17:50;6.00;;;1.02;;
23517;SDS011;11935;50.878;4.392;2022-08-24T12:22:45;3.93;;;1.10;;
23517;SDS011;11935;50.878;4.392;2022-08-24T12:25:12;3.78;;;1.00;;
23517;SDS011;11935;50.878;4.392;2022-08-24T12:27:57;6.38;;;4.25;;
23517;SDS011;11935;50.878;4.392;2022-08-24T12:30:23;6.63;;;4.00;;
23517;SDS011;11935;50.878;4.392;2022-08-24T12:33:01;4.65;;;0.82;;
23517;SDS011;11935;50.878;4.392;2022-08-24T12:35:29;2.38;;;0.90;;
23517;SDS011;11935;50.878;4.392;2022-08-24T12:37:58;1.98;;;0.70;;
23517;SDS011;11935;50.878;4.392;2022-08-24T12:40:34;2.30;;;0.70;;
23517;SDS011;11935;50.878;4.392;2022-08-24T12:43:05;4.70;;;0.80;;
23517;SDS011;11935;50.878;4.392;2022-08-24T12:45:32;3.75;;;0.70;;
23517;SDS011;11935;50.878;4.392;2022-08-24T13:00:56;2.33;;;0.50;;
23517;SDS011;11935;50.878;4.392;2022-08-24T13:03:30;4.43;;;0.75;;
23517;SDS011;11935;50.878;4.392;2022-08-24T13:05:57;1.50;;;0.70;;
23517;SDS011;11935;50.878;4.392;2022-08-24T13:11:09;4.88;;;0.80;;
23517;SDS011;11935;50.878;4.392;2022-08-24T13:21:45;3.53;;;0.70;;
23517;SDS011;11935;50.878;4.392;2022-08-24T13:29:38;2.63;;;0.90;;
23517;SDS011;11935;50.878;4.392;2022-08-24T13:32:06;1.85;;;0.73;;
23517;SDS011;11935;50.878;4.392;2022-08-24T13:34:41;2.42;;;0.82;;
23517;SDS011;11935;50.878;4.392;2022-08-24T13:37:11;4.32;;;0.80;;
23517;SDS011;11935;50.878;4.392;2022-08-24T13:40:00;2.05;;;0.80;;
23517;SDS011;11935;50.878;4.392;2022-08-24T14:07:17;10.63;;;6.40;;
23517;SDS011;11935;50.878;4.392;2022-08-24T14:17:49;3.78;;;0.80;;
23517;SDS011;11935;50.878;4.392;2022-08-24T14:25:41;2.92;;;0.80;;
23517;SDS011;11935;50.878;4.392;2022-08-24T14:31:34;3.72;;;0.95;;
23517;SDS011;11935;50.878;4.392;2022-08-24T14:33:53;3.72;;;1.00;;
23517;SDS011;11935;50.878;4.392;2022-08-24T14:36:42;3.88;;;1.00;;
23517;SDS011;11935;50.878;4.392;2022-08-24T14:39:10;3.28;;;1.17;;
23517;SDS011;11935;50.878;4.392;2022-08-24T14:41:57;3.95;;;1.08;;
23517;SDS011;11935;50.878;4.392;2022-08-24T14:44:39;8.18;;;1.35;;
23517;SDS011;11935;50.878;4.392;2022-08-24T14:57:40;5.55;;;0.93;;
23517;SDS011;11935;50.878;4.392;2022-08-24T15:00:16;2.53;;;1.00;;
23517;SDS011;11935;50.878;4.392;2022-08-24T15:08:02;2.60;;;1.02;;
23517;SDS011;11935;50.878;4.392;2022-08-24T15:16:09;4.47;;;1.20;;
23517;SDS011;11935;50.878;4.392;2022-08-24T15:18:47;5.68;;;1.20;;
23517;SDS011;11935;50.878;4.392;2022-08-24T15:21:28;4.05;;;1.23;;
23517;SDS011;11935;50.878;4.392;2022-08-24T15:24:07;4.18;;;1.20;;
23517;SDS011;11935;50.878;4.392;2022-08-24T15:26:49;3.72;;;1.20;;
23517;SDS011;11935;50.878;4.392;2022-08-24T15:29:22;6.07;;;2.20;;
23517;SDS011;11935;50.878;4.392;2022-08-24T15:32:09;5.93;;;1.60;;
23517;SDS011;11935;50.878;4.392;2022-08-24T15:34:37;6.13;;;2.25;;
23517;SDS011;11935;50.878;4.392;2022-08-24T15:37:04;2.08;;;1.05;;
23517;SDS011;11935;50.878;4.392;2022-08-24T15:39:31;4.10;;;1.35;;
23517;SDS011;11935;50.878;4.392;2022-08-24T15:41:57;2.90;;;1.35;;
23517;SDS011;11935;50.878;4.392;2022-08-24T15:44:28;2.43;;;1.20;;
23517;SDS011;11935;50.878;4.392;2022-08-24T15:46:56;5.43;;;1.13;;
23517;SDS011;11935;50.878;4.392;2022-08-24T15:49:27;3.10;;;1.15;;
23517;SDS011;11935;50.878;4.392;2022-08-24T15:51:55;6.72;;;1.08;;
23517;SDS011;11935;50.878;4.392;2022-08-24T15:56:50;6.55;;;1.35;;
23517;SDS011;11935;50.878;4.392;2022-08-24T16:01:42;7.40;;;3.78;;
23517;SDS011;11935;50.878;4.392;2022-08-24T16:04:44;12.30;;;3.20;;
23517;SDS011;11935;50.878;4.392;2022-08-24T16:07:11;8.82;;;3.45;;
23517;SDS011;11935;50.878;4.392;2022-08-24T16:09:39;8.27;;;2.28;;
23517;SDS011;11935;50.878;4.392;2022-08-24T16:12:10;9.73;;;2.00;;
23517;SDS011;11935;50.878;4.392;2022-08-24T16:18:04;8.75;;;2.15;;
23517;SDS011;11935;50.878;4.392;2022-08-24T16:22:52;8.90;;;1.40;;
23517;SDS011;11935;50.878;4.392;2022-08-24T16:33:10;8.25;;;1.60;;
23517;SDS011;11935;50.878;4.392;2022-08-24T16:36:06;7.97;;;1.20;;
23517;SDS011;11935;50.878;4.392;2022-08-24T16:38:32;8.85;;;1.58;;
23517;SDS011;11935;50.878;4.392;2022-08-24T16:41:03;3.23;;;1.40;;
23517;SDS011;11935;50.878;4.392;2022-08-24T16:43:30;4.15;;;1.33;;
23517;SDS011;11935;50.878;4.392;2022-08-24T16:45:56;7.35;;;1.20;;
23517;SDS011;11935;50.878;4.392;2022-08-24T16:48:23;5.55;;;1.17;;
23517;SDS011;11935;50.878;4.392;2022-08-24T16:50:52;5.03;;;1.30;;
23517;SDS011;11935;50.878;4.392;2022-08-24T16:53:20;6.35;;;1.20;;
23517;SDS011;11935;50.878;4.392;2022-08-24T16:55:46;6.93;;;1.55;;
23517;SDS011;11935;50.878;4.392;2022-08-24T16:58:13;6.72;;;1.48;;
23517;SDS011;11935;50.878;4.392;2022-08-24T17:00:39;3.83;;;1.30;;
23517;SDS011;11935;50.878;4.392;2022-08-24T17:03:05;7.50;;;1.20;;
23517;SDS011;11935;50.878;4.392;2022-08-24T17:05:31;4.32;;;1.40;;
23517;SDS011;11935;50.878;4.392;2022-08-24T17:07:58;2.58;;;1.10;;
23517;SDS011;11935;50.878;4.392;2022-08-24T17:10:24;3.13;;;1.27;;
23517;SDS011;11935;50.878;4.392;2022-08-24T17:12:51;7.38;;;1.30;;
23517;SDS011;11935;50.878;4.392;2022-08-24T17:15:17;9.80;;;1.92;;
23517;SDS011;11935;50.878;4.392;2022-08-24T17:17:52;19.27;;;2.75;;
23517;SDS011;11935;50.878;4.392;2022-08-24T17:20:19;16.60;;;2.47;;
23517;SDS011;11935;50.878;4.392;2022-08-24T17:22:45;2.92;;;1.38;;
23517;SDS011;11935;50.878;4.392;2022-08-24T17:25:11;10.23;;;1.70;;
23517;SDS011;11935;50.878;4.392;2022-08-24T17:27:38;3.40;;;1.13;;
23517;SDS011;11935;50.878;4.392;2022-08-24T17:30:04;5.60;;;1.63;;
23517;SDS011;11935;50.878;4.392;2022-08-24T17:32:31;5.13;;;1.50;;
23517;SDS011;11935;50.878;4.392;2022-08-24T17:34:57;5.25;;;2.05;;
23517;SDS011;11935;50.878;4.392;2022-08-24T17:37:23;7.30;;;2.50;;
23517;SDS011;11935;50.878;4.392;2022-08-24T17:39:53;6.50;;;1.50;;
23517;SDS011;11935;50.878;4.392;2022-08-24T17:42:20;15.57;;;2.47;;
23517;SDS011;11935;50.878;4.392;2022-08-24T17:44:46;4.43;;;1.70;;
23517;SDS011;11935;50.878;4.392;2022-08-24T17:47:12;7.25;;;2.20;;
23517;SDS011;11935;50.878;4.392;2022-08-24T17:49:38;4.40;;;1.40;;
23517;SDS011;11935;50.878;4.392;2022-08-24T17:52:05;7.75;;;1.73;;
23517;SDS011;11935;50.878;4.392;2022-08-24T17:54:31;7.95;;;2.03;;
23517;SDS011;11935;50.878;4.392;2022-08-24T17:56:57;3.80;;;1.55;;
23517;SDS011;11935;50.878;4.392;2022-08-24T17:59:33;7.03;;;1.58;;
23517;SDS011;11935;50.878;4.392;2022-08-24T18:02:07;6.78;;;2.25;;
23517;SDS011;11935;50.878;4.392;2022-08-24T18:04:33;5.78;;;2.05;;
23517;SDS011;11935;50.878;4.392;2022-08-24T18:07:01;140.82;;;18.38;;
23517;SDS011;11935;50.878;4.392;2022-08-24T18:09:30;7.50;;;2.05;;
23517;SDS011;11935;50.878;4.392;2022-08-24T18:11:57;5.88;;;1.92;;
23517;SDS011;11935;50.878;4.392;2022-08-24T18:14:24;9.23;;;2.30;;
23517;SDS011;11935;50.878;4.392;2022-08-24T18:16:53;6.80;;;2.50;;
23517;SDS011;11935;50.878;4.392;2022-08-24T18:19:20;8.60;;;3.50;;
23517;SDS011;11935;50.878;4.392;2022-08-24T18:21:46;8.80;;;2.40;;
23517;SDS011;11935;50.878;4.392;2022-08-24T18:24:12;10.52;;;2.35;;
23517;SDS011;11935;50.878;4.392;2022-08-24T18:26:39;7.53;;;2.20;;
23517;SDS011;11935;50.878;4.392;2022-08-24T18:29:15;9.02;;;2.50;;
23517;SDS011;11935;50.878;4.392;2022-08-24T18:31:42;11.32;;;2.33;;